Duff, Tennessee
Current Conditions -  °F | °C
As of 1:15 PM on Thursday 18 Dec 2014 (Local Time) from K1A6 Reporting Station
Overcast Overcast  
Wind Chill: 40°   Ceiling: 6500
Heat Index: 40°   Visibility: 10mi
Dew Point: 28°   Wind: 0mph
Humidity: 62%   Direction: NA
Pressure: 30.16"   Gusts: NA
Location:  36.45°N, 84.07°W
Report Text: K1A6 181815Z AUTO 00000KT 10SM OVC065 05/M02 A3016 RMK AO2 T00461022
Loading
Personal Weather Stations






























Interactive Weather Map New forecast layout! Learn more

10-Day Weather Forecast

Advertisements
Track Severe Weather on mobile